Time;durP1;ratioP1;P1;durP2;ratioP2;P2;SDS_P1;SDS_P2;PMS_P1;PMS_P2;Temp;Humidity;BMP_temperature;BMP_pressure;BME280_temperature;BME280_humidity;BME280_pressure;Samples;Min_cycle;Max_cycle;Signal;HPM_P1;HPM_P2
2024/04/01 00:01:32;;;;;;;5.20;2.37;;;;;;;;;;5102451;28;20193;-79
2024/04/01 00:04:00;;;;;;;4.70;2.30;;;;;;;;;;5102727;28;20219;-79
2024/04/01 00:06:26;;;;;;;5.77;2.43;;;;;;;;;;5099433;28;20197;-79
2024/04/01 00:08:53;;;;;;;5.87;2.17;;;;;;;;;;5102580;28;20193;-79
2024/04/01 00:11:21;;;;;;;5.57;2.40;;;;;;;;;;5101694;28;20191;-78
2024/04/01 00:13:49;;;;;;;3.57;2.23;;;;;;;;;;5100509;28;20853;-79
2024/04/01 00:16:15;;;;;;;8.17;2.57;;;;;;;;;;5102697;28;20248;-80
2024/04/01 00:18:42;;;;;;;4.57;2.23;;;;;;;;;;5099871;28;20187;-79
2024/04/01 00:21:08;;;;;;;5.03;2.40;;;;;;;;;;5102808;28;20202;-78
2024/04/01 00:23:36;;;;;;;8.40;2.40;;;;;;;;;;5100383;28;20218;-80
2024/04/01 00:26:03;;;;;;;8.70;2.33;;;;;;;;;;5102178;28;20317;-80
2024/04/01 00:28:32;;;;;;;6.00;2.63;;;;;;;;;;5102870;28;20218;-80
2024/04/01 00:30:58;;;;;;;5.10;2.50;;;;;;;;;;5101993;28;20226;-80
2024/04/01 00:33:26;;;;;;;6.33;2.50;;;;;;;;;;5102021;28;20223;-80
2024/04/01 00:35:52;;;;;;;6.00;2.80;;;;;;;;;;5100751;28;20186;-79
2024/04/01 00:38:19;;;;;;;4.13;2.23;;;;;;;;;;5102550;28;20263;-80
2024/04/01 00:40:45;;;;;;;5.37;2.33;;;;;;;;;;5101613;28;20866;-80
2024/04/01 00:43:13;;;;;;;7.00;2.60;;;;;;;;;;5101513;28;20225;-80
2024/04/01 00:45:42;;;;;;;4.93;2.20;;;;;;;;;;5101132;28;20197;-80
2024/04/01 00:48:09;;;;;;;4.83;2.50;;;;;;;;;;5098897;28;20254;-81
2024/04/01 00:50:36;;;;;;;6.93;2.83;;;;;;;;;;5101028;28;20678;-80
2024/04/01 00:53:04;;;;;;;4.93;2.33;;;;;;;;;;5101995;28;20256;-80
2024/04/01 00:55:31;;;;;;;5.87;2.40;;;;;;;;;;5099699;28;20691;-79
2024/04/01 00:58:00;;;;;;;7.27;2.67;;;;;;;;;;5100772;28;20241;-80
2024/04/01 01:00:26;;;;;;;3.87;2.30;;;;;;;;;;5101495;28;20205;-79
2024/04/01 01:02:55;;;;;;;4.47;2.50;;;;;;;;;;5102151;28;20198;-80
2024/04/01 01:05:22;;;;;;;3.23;2.27;;;;;;;;;;5101739;28;20221;-80
2024/04/01 01:07:50;;;;;;;3.90;2.50;;;;;;;;;;5098618;28;20194;-79
2024/04/01 01:10:17;;;;;;;7.07;2.67;;;;;;;;;;5101110;28;20194;-78
2024/04/01 01:12:44;;;;;;;6.53;2.30;;;;;;;;;;5100441;28;20202;-79
2024/04/01 01:15:10;;;;;;;9.17;2.57;;;;;;;;;;5101141;28;20739;-79
2024/04/01 01:17:38;;;;;;;7.37;2.60;;;;;;;;;;5099756;28;20190;-80
2024/04/01 01:20:11;;;;;;;3.77;2.40;;;;;;;;;;5100352;28;20252;-80
2024/04/01 01:22:40;;;;;;;6.03;2.83;;;;;;;;;;5093154;28;20563;-80
2024/04/01 01:25:07;;;;;;;3.60;2.50;;;;;;;;;;5092485;28;20280;-79
2024/04/01 01:27:34;;;;;;;4.50;2.50;;;;;;;;;;5092045;28;20204;-80
2024/04/01 01:30:00;;;;;;;5.93;2.53;;;;;;;;;;5092636;28;20285;-80
2024/04/01 01:32:28;;;;;;;9.17;2.37;;;;;;;;;;5092565;28;20253;-80
2024/04/01 01:34:54;;;;;;;7.00;2.50;;;;;;;;;;5092754;28;20202;-79
2024/04/01 01:37:22;;;;;;;6.17;2.30;;;;;;;;;;5092478;28;20562;-80
2024/04/01 01:39:49;;;;;;;5.87;2.00;;;;;;;;;;5092443;28;20198;-80
2024/04/01 01:42:16;;;;;;;6.03;2.57;;;;;;;;;;5091999;28;20686;-79
2024/04/01 01:44:43;;;;;;;4.03;2.10;;;;;;;;;;5103669;28;20253;-80
2024/04/01 01:47:10;;;;;;;6.93;2.50;;;;;;;;;;5112449;28;20223;-79
2024/04/01 01:49:36;;;;;;;5.53;2.23;;;;;;;;;;5112793;28;20194;-79
2024/04/01 01:52:04;;;;;;;7.30;2.10;;;;;;;;;;5112907;28;20697;-79
2024/04/01 01:54:30;;;;;;;5.20;2.00;;;;;;;;;;5112613;28;20198;-79
2024/04/01 01:56:58;;;;;;;6.60;2.33;;;;;;;;;;5112119;28;20271;-79
2024/04/01 01:59:25;;;;;;;4.73;2.37;;;;;;;;;;5112526;28;20197;-80
2024/04/01 02:01:52;;;;;;;4.83;2.10;;;;;;;;;;5112396;28;20197;-80
2024/04/01 02:04:18;;;;;;;5.80;2.20;;;;;;;;;;5112570;28;20226;-80
2024/04/01 02:06:45;;;;;;;4.83;1.83;;;;;;;;;;5103927;28;20195;-80
2024/04/01 02:09:12;;;;;;;4.50;2.13;;;;;;;;;;5096947;28;20205;-80
2024/04/01 02:11:39;;;;;;;6.70;2.20;;;;;;;;;;5100396;28;20225;-79
2024/04/01 02:14:07;;;;;;;7.87;2.10;;;;;;;;;;5101837;28;20205;-81
2024/04/01 02:16:34;;;;;;;4.97;2.10;;;;;;;;;;5099668;28;20217;-79
2024/04/01 02:19:01;;;;;;;4.50;1.90;;;;;;;;;;5101061;28;20298;-80
2024/04/01 02:21:28;;;;;;;7.80;2.23;;;;;;;;;;5098026;28;20280;-79
2024/04/01 02:23:54;;;;;;;4.83;1.80;;;;;;;;;;5099299;28;20562;-80
2024/04/01 02:26:21;;;;;;;8.57;2.10;;;;;;;;;;5099419;28;20230;-80
2024/04/01 02:28:49;;;;;;;6.57;2.10;;;;;;;;;;5097553;28;20197;-80
2024/04/01 02:31:18;;;;;;;5.10;2.00;;;;;;;;;;5097645;28;20191;-80
2024/04/01 02:33:44;;;;;;;4.50;2.00;;;;;;;;;;5100674;28;20738;-79
2024/04/01 02:36:12;;;;;;;6.17;1.90;;;;;;;;;;5099886;28;20540;-80
2024/04/01 02:38:38;;;;;;;7.20;2.10;;;;;;;;;;5098374;28;20674;-80
2024/04/01 02:41:06;;;;;;;8.00;2.10;;;;;;;;;;5100126;28;20190;-79
2024/04/01 02:43:32;;;;;;;7.57;2.10;;;;;;;;;;5096118;28;20263;-79
2024/04/01 02:45:59;;;;;;;8.63;2.10;;;;;;;;;;5098511;28;20622;-79
2024/04/01 02:48:27;;;;;;;5.93;1.80;;;;;;;;;;5102801;28;20727;-79
2024/04/01 02:50:54;;;;;;;5.73;1.90;;;;;;;;;;5099918;28;20201;-79
2024/04/01 02:53:20;;;;;;;5.83;1.67;;;;;;;;;;5096289;28;20263;-79
2024/04/01 02:55:47;;;;;;;6.63;2.00;;;;;;;;;;5099949;28;20221;-79
2024/04/01 02:58:14;;;;;;;5.93;2.03;;;;;;;;;;5100067;28;20322;-80
2024/04/01 03:00:45;;;;;;;6.33;1.57;;;;;;;;;;5100048;28;20198;-80
2024/04/01 03:03:12;;;;;;;5.83;1.60;;;;;;;;;;5097898;28;20190;-80
2024/04/01 03:05:41;;;;;;;5.43;1.80;;;;;;;;;;5099469;28;20694;-79
2024/04/01 03:08:07;;;;;;;8.03;1.73;;;;;;;;;;5099604;28;20218;-80
2024/04/01 03:10:34;;;;;;;2.83;1.40;;;;;;;;;;5098386;28;20198;-80
2024/04/01 03:13:04;;;;;;;4.77;1.40;;;;;;;;;;5098131;28;20259;-79
2024/04/01 03:15:31;;;;;;;8.23;1.47;;;;;;;;;;5096889;28;20761;-80
2024/04/01 03:17:58;;;;;;;4.57;1.37;;;;;;;;;;5098918;28;20216;-79
2024/04/01 03:20:25;;;;;;;5.90;1.30;;;;;;;;;;5103450;28;20202;-80
2024/04/01 03:22:53;;;;;;;5.20;1.27;;;;;;;;;;5101340;28;20662;-79
2024/04/01 03:25:20;;;;;;;6.43;1.40;;;;;;;;;;5102113;28;20232;-79
2024/04/01 03:27:47;;;;;;;4.07;1.27;;;;;;;;;;5103540;28;20269;-79
2024/04/01 03:30:14;;;;;;;3.63;1.03;;;;;;;;;;5103858;28;20198;-79
2024/04/01 03:32:40;;;;;;;7.70;1.43;;;;;;;;;;5104099;28;20251;-79
2024/04/01 03:35:09;;;;;;;7.30;1.23;;;;;;;;;;5101014;28;20242;-80
2024/04/01 03:37:36;;;;;;;8.50;1.60;;;;;;;;;;5103740;28;20239;-80
2024/04/01 03:40:07;;;;;;;7.87;1.43;;;;;;;;;;5103791;27;20198;-79
2024/04/01 03:42:34;;;;;;;6.20;1.37;;;;;;;;;;5100310;28;20650;-79
2024/04/01 03:45:01;;;;;;;6.67;1.20;;;;;;;;;;5103096;28;20214;-79
2024/04/01 03:47:32;;;;;;;7.70;1.70;;;;;;;;;;5101323;28;20201;-79
2024/04/01 03:49:59;;;;;;;5.97;1.60;;;;;;;;;;5101779;28;20194;-80
2024/04/01 03:52:26;;;;;;;6.00;1.27;;;;;;;;;;5102263;28;20717;-79
2024/04/01 03:54:53;;;;;;;5.93;1.40;;;;;;;;;;5100391;28;20553;-79
2024/04/01 03:57:21;;;;;;;5.23;1.37;;;;;;;;;;5101979;28;20191;-80
2024/04/01 03:59:48;;;;;;;7.97;1.30;;;;;;;;;;5102921;28;20667;-79
2024/04/01 04:02:15;;;;;;;5.47;1.20;;;;;;;;;;5102885;28;20225;-80
2024/04/01 04:04:43;;;;;;;7.37;1.50;;;;;;;;;;5093940;28;20218;-79
2024/04/01 04:07:09;;;;;;;9.00;1.37;;;;;;;;;;5103263;28;20190;-80
2024/04/01 04:09:36;;;;;;;5.03;1.20;;;;;;;;;;5103456;28;20198;-79
2024/04/01 04:12:03;;;;;;;6.87;1.60;;;;;;;;;;5103638;27;20586;-78
2024/04/01 04:14:32;;;;;;;3.97;1.17;;;;;;;;;;5100874;28;20277;-79
2024/04/01 04:16:58;;;;;;;6.53;1.40;;;;;;;;;;5102842;28;20187;-78
2024/04/01 04:19:26;;;;;;;5.13;1.30;;;;;;;;;;5103515;28;20201;-79
2024/04/01 04:21:52;;;;;;;5.73;1.33;;;;;;;;;;5100957;28;20674;-79
2024/04/01 04:24:19;;;;;;;6.00;1.13;;;;;;;;;;5102859;28;20237;-79
2024/04/01 04:26:45;;;;;;;8.23;1.30;;;;;;;;;;5102502;28;20252;-79
2024/04/01 04:29:13;;;;;;;4.53;1.10;;;;;;;;;;5101780;27;20552;-79
2024/04/01 04:31:40;;;;;;;6.13;1.10;;;;;;;;;;5102497;28;20198;-80
2024/04/01 04:34:09;;;;;;;7.77;2.50;;;;;;;;;;5101393;28;20198;-80
2024/04/01 04:36:36;;;;;;;5.83;1.27;;;;;;;;;;5100412;28;20263;-78
2024/04/01 04:39:19;;;;;;;7.10;1.60;;;;;;;;;;5102328;28;20249;-80
2024/04/01 04:41:46;;;;;;;7.73;1.50;;;;;;;;;;5100773;28;20617;-80
2024/04/01 04:44:13;;;;;;;8.10;1.37;;;;;;;;;;5101710;28;20210;-79
2024/04/01 04:46:41;;;;;;;8.33;1.57;;;;;;;;;;5101387;28;20554;-80
2024/04/01 04:49:08;;;;;;;5.17;1.40;;;;;;;;;;5101990;28;20678;-80
2024/04/01 04:51:34;;;;;;;9.20;1.50;;;;;;;;;;5099160;28;20282;-80
2024/04/01 04:54:01;;;;;;;8.37;1.23;;;;;;;;;;5101121;28;20250;-78
2024/04/01 04:56:28;;;;;;;9.97;1.53;;;;;;;;;;5101658;28;20694;-79
2024/04/01 04:58:55;;;;;;;5.07;1.33;;;;;;;;;;5102177;28;20198;-80
2024/04/01 05:01:22;;;;;;;7.00;1.37;;;;;;;;;;5101022;28;20196;-79
2024/04/01 05:03:50;;;;;;;8.03;1.67;;;;;;;;;;5101142;28;20721;-79
2024/04/01 05:06:17;;;;;;;6.10;1.53;;;;;;;;;;5098688;28;20569;-80
2024/04/01 05:08:45;;;;;;;5.40;1.37;;;;;;;;;;5100632;28;20678;-79
2024/04/01 05:11:11;;;;;;;4.97;1.20;;;;;;;;;;5102046;28;20288;-79
2024/04/01 05:13:39;;;;;;;5.67;1.50;;;;;;;;;;5103157;28;20293;-79
2024/04/01 05:16:06;;;;;;;7.77;1.57;;;;;;;;;;5101191;28;20198;-79
2024/04/01 05:18:33;;;;;;;7.13;1.30;;;;;;;;;;5101261;28;20191;-80
2024/04/01 05:21:01;;;;;;;7.43;1.30;;;;;;;;;;5100919;28;20206;-79
2024/04/01 05:23:28;;;;;;;6.90;1.77;;;;;;;;;;5100684;28;20250;-80
2024/04/01 05:25:55;;;;;;;7.63;1.50;;;;;;;;;;5101326;28;20238;-80
2024/04/01 05:28:22;;;;;;;9.70;1.50;;;;;;;;;;5100231;28;20228;-79
2024/04/01 05:30:53;;;;;;;5.63;1.30;;;;;;;;;;5093590;28;20206;-79
2024/04/01 05:33:20;;;;;;;8.50;1.47;;;;;;;;;;5097994;28;20198;-79
2024/04/01 05:35:48;;;;;;;8.50;1.20;;;;;;;;;;5100402;28;20250;-79
2024/04/01 05:38:16;;;;;;;7.63;1.20;;;;;;;;;;5100700;28;20203;-80
2024/04/01 05:40:43;;;;;;;6.83;1.50;;;;;;;;;;5097948;28;20193;-79
2024/04/01 05:43:10;;;;;;;4.27;1.13;;;;;;;;;;5097157;28;20648;-79
2024/04/01 05:45:36;;;;;;;4.63;1.40;;;;;;;;;;5092464;28;20308;-79
2024/04/01 05:48:04;;;;;;;8.73;1.20;;;;;;;;;;5092109;28;20240;-79
2024/04/01 05:50:30;;;;;;;10.70;1.40;;;;;;;;;;5091546;28;20187;-79
2024/04/01 05:52:57;;;;;;;8.30;1.37;;;;;;;;;;5090755;28;20198;-79
2024/04/01 05:55:25;;;;;;;9.40;1.70;;;;;;;;;;5094251;28;20198;-79
2024/04/01 05:57:52;;;;;;;6.50;1.30;;;;;;;;;;5112727;28;20226;-79
2024/04/01 06:00:20;;;;;;;8.13;1.40;;;;;;;;;;5112270;28;20197;-79
2024/04/01 06:02:49;;;;;;;6.67;1.37;;;;;;;;;;5092601;28;20616;-79
2024/04/01 06:05:15;;;;;;;7.90;1.30;;;;;;;;;;5092068;28;20609;-79
2024/04/01 06:07:42;;;;;;;6.47;1.60;;;;;;;;;;5094800;28;20198;-79
2024/04/01 06:10:08;;;;;;;10.70;1.30;;;;;;;;;;5091497;28;20323;-78
2024/04/01 06:12:37;;;;;;;7.83;1.17;;;;;;;;;;5091930;28;20206;-79
2024/04/01 06:15:03;;;;;;;5.77;1.30;;;;;;;;;;5111073;28;20682;-80
2024/04/01 06:17:31;;;;;;;7.30;1.53;;;;;;;;;;5112044;28;20234;-79
2024/04/01 06:19:57;;;;;;;5.70;1.37;;;;;;;;;;5112155;28;20258;-79
2024/04/01 06:22:24;;;;;;;6.57;1.40;;;;;;;;;;5111975;28;20635;-79
2024/04/01 06:24:50;;;;;;;7.93;1.50;;;;;;;;;;5094434;28;20322;-80
2024/04/01 06:27:18;;;;;;;7.93;1.10;;;;;;;;;;5091397;28;20675;-80
2024/04/01 06:29:45;;;;;;;7.37;1.10;;;;;;;;;;5091323;28;20198;-79
2024/04/01 06:32:13;;;;;;;6.70;1.10;;;;;;;;;;5109514;28;20200;-78
2024/04/01 06:34:39;;;;;;;8.80;1.20;;;;;;;;;;5105885;28;20622;-80
2024/04/01 06:37:06;;;;;;;7.27;1.60;;;;;;;;;;5091480;28;20226;-79
2024/04/01 06:39:33;;;;;;;5.07;1.60;;;;;;;;;;5091794;28;20271;-79
2024/04/01 06:42:00;;;;;;;8.73;1.40;;;;;;;;;;5091552;28;20206;-80
2024/04/01 06:44:26;;;;;;;9.50;1.27;;;;;;;;;;5091657;28;20279;-80
2024/04/01 06:46:55;;;;;;;8.53;1.30;;;;;;;;;;5091067;28;20631;-80
2024/04/01 06:49:21;;;;;;;6.67;1.33;;;;;;;;;;5091828;28;20250;-80
2024/04/01 06:51:48;;;;;;;7.23;1.57;;;;;;;;;;5091217;28;20674;-79
2024/04/01 06:54:14;;;;;;;8.13;1.43;;;;;;;;;;5090678;28;20201;-79
2024/04/01 06:56:42;;;;;;;7.27;1.50;;;;;;;;;;5091354;28;20206;-78
2024/04/01 06:59:08;;;;;;;5.20;1.10;;;;;;;;;;5091737;28;20199;-79
2024/04/01 07:01:36;;;;;;;6.13;1.60;;;;;;;;;;5091069;28;20573;-80
2024/04/01 07:04:04;;;;;;;6.53;1.20;;;;;;;;;;5091350;28;20259;-80
2024/04/01 07:06:31;;;;;;;10.23;1.50;;;;;;;;;;5091510;28;20226;-80
2024/04/01 07:08:57;;;;;;;6.30;1.40;;;;;;;;;;5107739;28;20198;-78
2024/04/01 07:11:24;;;;;;;5.53;1.60;;;;;;;;;;5111328;28;20220;-79
2024/04/01 07:13:51;;;;;;;7.10;1.10;;;;;;;;;;5100190;28;20256;-80
2024/04/01 07:16:18;;;;;;;7.67;1.30;;;;;;;;;;5090848;28;20338;-80
2024/04/01 07:18:44;;;;;;;5.80;1.00;;;;;;;;;;5090830;28;20198;-80
2024/04/01 07:21:13;;;;;;;4.97;0.93;;;;;;;;;;5091445;28;20206;-80
2024/04/01 07:23:39;;;;;;;6.55;1.20;;;;;;;;;;5096393;28;20650;-79
2024/04/01 07:26:06;;;;;;;11.02;1.25;;;;;;;;;;5111356;28;20332;-79
2024/04/01 07:28:32;;;;;;;6.78;1.15;;;;;;;;;;5111234;28;20190;-80
2024/04/01 07:31:04;;;;;;;4.85;0.98;;;;;;;;;;5111537;28;20589;-79
2024/04/01 07:33:30;;;;;;;5.25;0.85;;;;;;;;;;5102827;28;20258;-80
2024/04/01 07:35:57;;;;;;;6.38;0.98;;;;;;;;;;5090893;28;20202;-79
2024/04/01 07:38:25;;;;;;;4.43;0.85;;;;;;;;;;5107357;28;20247;-78
2024/04/01 07:40:52;;;;;;;5.05;1.20;;;;;;;;;;5106308;28;20225;-79
2024/04/01 07:43:18;;;;;;;5.97;1.20;;;;;;;;;;5090487;28;20218;-77
2024/04/01 07:45:46;;;;;;;2.90;0.93;;;;;;;;;;5090575;28;20230;-79
2024/04/01 07:48:12;;;;;;;3.72;1.02;;;;;;;;;;5090477;28;20255;-78
2024/04/01 07:50:39;;;;;;;5.07;1.10;;;;;;;;;;5090597;28;20206;-78
2024/04/01 07:53:06;;;;;;;3.70;0.70;;;;;;;;;;5084070;28;20293;-77
2024/04/01 07:55:34;;;;;;;3.35;0.77;;;;;;;;;;5070097;28;20581;-77
2024/04/01 07:58:01;;;;;;;2.72;0.93;;;;;;;;;;5086202;28;20194;-77
2024/04/01 08:00:28;;;;;;;4.72;0.90;;;;;;;;;;5110024;28;20861;-78
2024/04/01 08:02:54;;;;;;;2.90;0.70;;;;;;;;;;5110328;28;20197;-78
2024/04/01 08:05:21;;;;;;;3.58;0.95;;;;;;;;;;5108544;28;20214;-78
2024/04/01 08:07:47;;;;;;;5.63;1.27;;;;;;;;;;5094000;28;20202;-77
2024/04/01 08:10:15;;;;;;;2.40;1.10;;;;;;;;;;5094111;28;20198;-77
2024/04/01 08:12:43;;;;;;;4.47;0.80;;;;;;;;;;5093711;28;20190;-79
2024/04/01 08:15:10;;;;;;;3.63;0.90;;;;;;;;;;5093865;28;20263;-78
2024/04/01 08:17:37;;;;;;;4.28;0.90;;;;;;;;;;5093796;28;20194;-78
2024/04/01 08:20:05;;;;;;;4.75;0.90;;;;;;;;;;5099032;28;20285;-79
2024/04/01 08:22:33;;;;;;;2.95;0.80;;;;;;;;;;5099771;28;20198;-78
2024/04/01 08:25:00;;;;;;;2.17;0.80;;;;;;;;;;5090413;28;20332;-78
2024/04/01 08:27:27;;;;;;;5.28;1.00;;;;;;;;;;5093725;28;20387;-79
2024/04/01 08:29:54;;;;;;;3.92;0.70;;;;;;;;;;5090562;28;20252;-77
2024/04/01 08:32:22;;;;;;;4.80;0.90;;;;;;;;;;5090488;28;20205;-79
2024/04/01 08:34:48;;;;;;;3.72;0.80;;;;;;;;;;5090497;28;20315;-78
2024/04/01 08:37:15;;;;;;;3.00;0.70;;;;;;;;;;5090736;28;20873;-78
2024/04/01 08:39:42;;;;;;;4.20;0.85;;;;;;;;;;4752948;28;10001684;-78
2024/04/01 08:42:11;;;;;;;4.90;1.00;;;;;;;;;;5082945;28;20489;-78
2024/04/01 08:44:38;;;;;;;2.92;0.63;;;;;;;;;;5089875;28;20774;-79
2024/04/01 08:47:06;;;;;;;3.92;0.80;;;;;;;;;;5090695;28;20208;-76
2024/04/01 08:49:40;;;;;;;2.30;0.65;;;;;;;;;;5084651;28;20299;-79
2024/04/01 08:52:09;;;;;;;4.28;0.65;;;;;;;;;;5087635;28;20255;-78
2024/04/01 08:54:36;;;;;;;3.13;0.70;;;;;;;;;;5086768;28;20210;-77
2024/04/01 08:57:02;;;;;;;2.33;0.57;;;;;;;;;;5089790;28;20248;-78
2024/04/01 08:59:31;;;;;;;4.50;0.70;;;;;;;;;;5089076;28;20671;-78
2024/04/01 09:01:57;;;;;;;4.18;0.75;;;;;;;;;;5090314;28;20768;-79
2024/04/01 09:04:26;;;;;;;3.20;0.60;;;;;;;;;;5094055;28;20210;-79
2024/04/01 09:06:52;;;;;;;1.50;0.50;;;;;;;;;;5093387;28;20226;-78
2024/04/01 09:09:19;;;;;;;1.83;0.60;;;;;;;;;;5092709;28;20205;-81
2024/04/01 09:11:46;;;;;;;3.03;0.50;;;;;;;;;;5092047;28;20248;-80
2024/04/01 09:14:14;;;;;;;2.40;0.57;;;;;;;;;;5092220;28;20195;-82
2024/04/01 09:16:41;;;;;;;3.42;0.63;;;;;;;;;;5090784;28;20247;-83
2024/04/01 09:19:10;;;;;;;1.90;0.70;;;;;;;;;;5092676;28;20206;-82
2024/04/01 09:21:38;;;;;;;4.25;0.60;;;;;;;;;;5084068;28;20199;-82
2024/04/01 09:24:06;;;;;;;2.53;0.50;;;;;;;;;;5072424;28;20204;-82
2024/04/01 09:26:32;;;;;;;6.68;1.00;;;;;;;;;;5091581;28;20295;-81
2024/04/01 09:28:59;;;;;;;2.97;0.43;;;;;;;;;;5092441;28;20244;-81
2024/04/01 09:31:26;;;;;;;3.63;0.73;;;;;;;;;;5092027;28;20244;-81
2024/04/01 09:33:53;;;;;;;4.90;0.90;;;;;;;;;;5090670;28;20195;-81
2024/04/01 09:36:20;;;;;;;3.63;0.82;;;;;;;;;;5082017;28;20233;-82
2024/04/01 09:38:51;;;;;;;3.28;0.77;;;;;;;;;;5091022;28;20206;-80
2024/04/01 09:41:18;;;;;;;4.50;1.15;;;;;;;;;;5090589;28;20202;-82
2024/04/01 09:43:45;;;;;;;3.53;1.00;;;;;;;;;;5092422;28;20209;-82
2024/04/01 09:46:11;;;;;;;2.90;0.75;;;;;;;;;;5092349;28;20319;-82
2024/04/01 09:48:39;;;;;;;4.57;0.80;;;;;;;;;;5092722;28;20252;-82
2024/04/01 09:51:05;;;;;;;4.55;0.80;;;;;;;;;;5092546;28;20280;-83
2024/04/01 09:53:32;;;;;;;6.35;1.00;;;;;;;;;;5092462;28;20294;-82
2024/04/01 09:56:12;;;;;;;4.63;0.93;;;;;;;;;;5091859;28;20198;-83
2024/04/01 09:58:49;;;;;;;4.55;1.40;;;;;;;;;;5092855;28;20649;-83
2024/04/01 10:01:23;;;;;;;5.25;1.00;;;;;;;;;;5092418;28;20738;-82
2024/04/01 10:04:09;;;;;;;4.78;0.88;;;;;;;;;;5092232;28;20293;-82
2024/04/01 10:07:02;;;;;;;5.20;0.85;;;;;;;;;;5092638;28;20729;-82
2024/04/01 10:09:47;;;;;;;4.30;1.10;;;;;;;;;;5029077;28;20630;-82
2024/04/01 10:12:29;;;;;;;8.02;1.52;;;;;;;;;;5029732;28;20193;-83
2024/04/01 10:15:19;;;;;;;4.75;0.80;;;;;;;;;;5030134;28;20728;-82
2024/04/01 10:18:03;;;;;;;5.38;0.93;;;;;;;;;;5028621;28;20298;-83
2024/04/01 10:21:00;;;;;;;5.22;0.88;;;;;;;;;;5029268;28;20196;-82
2024/04/01 10:23:59;;;;;;;3.53;0.90;;;;;;;;;;4970797;28;20206;-83
2024/04/01 10:26:44;;;;;;;6.32;1.13;;;;;;;;;;4971018;28;20329;-83
2024/04/01 10:29:25;;;;;;;4.60;1.20;;;;;;;;;;4954513;28;20757;-82
2024/04/01 10:32:07;;;;;;;4.97;1.25;;;;;;;;;;4965498;28;20210;-83
2024/04/01 10:34:49;;;;;;;5.55;1.40;;;;;;;;;;4970706;28;20206;-82
2024/04/01 10:37:32;;;;;;;6.00;1.40;;;;;;;;;;4970520;28;20836;-83
2024/04/01 10:40:03;;;;;;;6.13;1.10;;;;;;;;;;4954087;28;20210;-83
2024/04/01 10:42:41;;;;;;;5.13;1.30;;;;;;;;;;4970588;28;20198;-83
2024/04/01 10:45:25;;;;;;;5.50;1.17;;;;;;;;;;5006110;28;20243;-83
2024/04/01 10:48:04;;;;;;;4.20;0.90;;;;;;;;;;5048728;28;20200;-82
2024/04/01 10:50:42;;;;;;;6.18;1.50;;;;;;;;;;5049308;28;20196;-84
2024/04/01 10:53:19;;;;;;;3.25;1.00;;;;;;;;;;5048707;28;20210;-83
2024/04/01 10:56:06;;;;;;;2.53;1.00;;;;;;;;;;5049083;28;20676;-82
2024/04/01 10:58:48;;;;;;;4.60;1.48;;;;;;;;;;5087276;28;20205;-84
2024/04/01 11:01:39;;;;;;;5.13;1.00;;;;;;;;;;5091719;28;20248;-83
2024/04/01 11:04:16;;;;;;;6.00;1.52;;;;;;;;;;5080975;28;20614;-84
2024/04/01 11:06:53;;;;;;;4.60;1.13;;;;;;;;;;5091387;28;20279;-83
2024/04/01 11:09:31;;;;;;;6.03;1.60;;;;;;;;;;5090850;28;20198;-83
2024/04/01 11:12:02;;;;;;;6.22;1.60;;;;;;;;;;5091486;28;20268;-84
2024/04/01 11:14:30;;;;;;;3.72;1.10;;;;;;;;;;5091526;28;20198;-83
2024/04/01 11:16:58;;;;;;;5.18;1.30;;;;;;;;;;5091722;28;20218;-84
2024/04/01 11:19:40;;;;;;;3.40;0.93;;;;;;;;;;5091229;28;20205;-82
2024/04/01 11:22:11;;;;;;;4.15;0.90;;;;;;;;;;5090311;28;20614;-83
2024/04/01 11:24:44;;;;;;;4.35;1.50;;;;;;;;;;5091058;28;20257;-82
2024/04/01 11:27:31;;;;;;;6.95;1.50;;;;;;;;;;5091283;28;20280;-83
2024/04/01 11:30:18;;;;;;;5.53;1.52;;;;;;;;;;5091684;28;20259;-83
2024/04/01 11:32:46;;;;;;;2.92;0.90;;;;;;;;;;5091510;28;20201;-83
2024/04/01 11:35:15;;;;;;;2.92;1.00;;;;;;;;;;5090976;28;20198;-82
2024/04/01 11:37:49;;;;;;;5.28;1.13;;;;;;;;;;5091360;28;20285;-82
2024/04/01 11:40:19;;;;;;;3.70;1.00;;;;;;;;;;5093159;28;20287;-83
2024/04/01 11:42:48;;;;;;;3.60;1.38;;;;;;;;;;5095661;28;20209;-83
2024/04/01 11:45:19;;;;;;;6.30;1.38;;;;;;;;;;5095090;28;20201;-83
2024/04/01 11:47:46;;;;;;;6.32;1.20;;;;;;;;;;5095464;28;20202;-82
2024/04/01 11:50:16;;;;;;;3.75;1.00;;;;;;;;;;5095369;28;20232;-82
2024/04/01 11:52:43;;;;;;;4.25;1.30;;;;;;;;;;5094335;28;20613;-83
2024/04/01 11:55:12;;;;;;;3.42;1.38;;;;;;;;;;5095077;28;20198;-82
2024/04/01 11:57:38;;;;;;;4.82;1.30;;;;;;;;;;5095152;28;20202;-82
2024/04/01 12:00:06;;;;;;;4.15;1.30;;;;;;;;;;5094767;28;20232;-82
2024/04/01 12:02:33;;;;;;;6.57;1.70;;;;;;;;;;5095183;28;20198;-82
2024/04/01 12:05:02;;;;;;;4.47;1.20;;;;;;;;;;5094673;28;20880;-82
2024/04/01 12:07:28;;;;;;;6.55;1.33;;;;;;;;;;5094236;28;20911;-83
2024/04/01 12:09:55;;;;;;;8.32;1.40;;;;;;;;;;5094735;28;20758;-83
2024/04/01 12:12:23;;;;;;;5.90;1.48;;;;;;;;;;5094618;28;20194;-81
2024/04/01 12:14:50;;;;;;;4.47;1.38;;;;;;;;;;5094893;28;20199;-83
2024/04/01 12:17:21;;;;;;;5.97;1.58;;;;;;;;;;5094522;28;20194;-83
2024/04/01 12:19:48;;;;;;;4.47;1.25;;;;;;;;;;5094815;28;20202;-82
2024/04/01 12:22:16;;;;;;;5.90;1.40;;;;;;;;;;5094734;28;20289;-82
2024/04/01 12:24:43;;;;;;;5.95;1.45;;;;;;;;;;5094231;28;20238;-82
2024/04/01 12:27:10;;;;;;;4.55;1.30;;;;;;;;;;5094191;28;20257;-82
2024/04/01 12:29:39;;;;;;;3.88;1.25;;;;;;;;;;5094264;28;20204;-82
2024/04/01 12:32:08;;;;;;;4.72;1.40;;;;;;;;;;5093630;28;20251;-82
2024/04/01 12:34:36;;;;;;;9.63;1.60;;;;;;;;;;5093519;28;20202;-82
2024/04/01 12:37:03;;;;;;;4.57;1.60;;;;;;;;;;5094659;28;20202;-82
2024/04/01 12:39:30;;;;;;;3.35;1.42;;;;;;;;;;5093729;28;20199;-82
2024/04/01 12:41:57;;;;;;;5.30;1.50;;;;;;;;;;5093839;28;20255;-82
2024/04/01 12:44:24;;;;;;;3.30;1.35;;;;;;;;;;5094247;28;20697;-82
2024/04/01 12:46:53;;;;;;;7.10;1.60;;;;;;;;;;5093595;28;20644;-81
2024/04/01 12:49:22;;;;;;;5.25;1.63;;;;;;;;;;5093691;28;20255;-81
2024/04/01 12:51:48;;;;;;;9.10;1.70;;;;;;;;;;5092679;28;20225;-82
2024/04/01 12:54:22;;;;;;;6.35;1.40;;;;;;;;;;5093426;28;20194;-81
2024/04/01 12:56:53;;;;;;;4.88;1.35;;;;;;;;;;5094032;28;20194;-82
2024/04/01 12:59:27;;;;;;;8.10;1.88;;;;;;;;;;5093551;28;20195;-82
2024/04/01 13:02:01;;;;;;;3.90;1.38;;;;;;;;;;5093581;28;20194;-82
2024/04/01 13:04:36;;;;;;;3.42;1.00;;;;;;;;;;5093195;28;20194;-82
2024/04/01 13:07:07;;;;;;;4.53;0.97;;;;;;;;;;5093844;28;20225;-81
2024/04/01 13:09:39;;;;;;;4.87;1.20;;;;;;;;;;5093247;28;20305;-80
2024/04/01 13:12:13;;;;;;;4.33;1.00;;;;;;;;;;5093572;28;20252;-82
2024/04/01 13:14:47;;;;;;;2.03;0.70;;;;;;;;;;5093402;28;20224;-82
2024/04/01 13:17:16;;;;;;;3.13;0.70;;;;;;;;;;5093367;28;20254;-81
2024/04/01 13:19:50;;;;;;;3.37;1.00;;;;;;;;;;5093178;28;20286;-81
2024/04/01 13:22:24;;;;;;;4.03;1.02;;;;;;;;;;5093331;28;20206;-81
2024/04/01 13:24:53;;;;;;;2.72;1.17;;;;;;;;;;5093043;28;20225;-81
2024/04/01 13:27:23;;;;;;;4.28;1.23;;;;;;;;;;5092454;28;20358;-81
2024/04/01 13:29:56;;;;;;;3.47;1.08;;;;;;;;;;5093329;28;20557;-82
2024/04/01 13:32:29;;;;;;;7.20;1.30;;;;;;;;;;5092489;28;20202;-82
2024/04/01 13:35:04;;;;;;;6.57;1.60;;;;;;;;;;5092791;28;20202;-82
2024/04/01 13:37:32;;;;;;;6.93;1.52;;;;;;;;;;5092915;28;20288;-81
2024/04/01 13:40:11;;;;;;;7.57;1.40;;;;;;;;;;5092773;28;20238;-82
2024/04/01 13:42:43;;;;;;;5.28;1.60;;;;;;;;;;5092782;28;20228;-81
2024/04/01 13:45:16;;;;;;;4.10;1.20;;;;;;;;;;5092605;28;20593;-82
2024/04/01 13:47:52;;;;;;;5.53;1.25;;;;;;;;;;5092278;28;20768;-81
2024/04/01 13:50:24;;;;;;;3.17;1.00;;;;;;;;;;5092750;28;20214;-81
2024/04/01 13:52:59;;;;;;;3.87;1.20;;;;;;;;;;5092441;28;20246;-81
2024/04/01 13:55:31;;;;;;;3.20;1.07;;;;;;;;;;5092690;28;20213;-82
2024/04/01 13:58:01;;;;;;;4.70;1.30;;;;;;;;;;5092804;28;20194;-80
2024/04/01 14:00:34;;;;;;;4.40;1.60;;;;;;;;;;5092516;28;20199;-81
2024/04/01 14:03:05;;;;;;;6.50;1.33;;;;;;;;;;5092020;28;20556;-80
2024/04/01 14:05:41;;;;;;;6.37;1.50;;;;;;;;;;5092532;28;20675;-81
2024/04/01 14:08:12;;;;;;;5.32;1.55;;;;;;;;;;5092486;28;20267;-81
2024/04/01 14:10:43;;;;;;;3.70;1.02;;;;;;;;;;5092157;28;20212;-81
2024/04/01 14:13:19;;;;;;;7.05;1.40;;;;;;;;;;5092180;28;20255;-81
2024/04/01 14:15:49;;;;;;;4.95;1.30;;;;;;;;;;5092450;28;20228;-82
2024/04/01 14:18:25;;;;;;;5.25;0.90;;;;;;;;;;5092186;28;20251;-82
2024/04/01 14:20:53;;;;;;;4.65;1.00;;;;;;;;;;5090941;28;20205;-81
2024/04/01 14:23:20;;;;;;;3.25;0.93;;;;;;;;;;5092200;28;20195;-82
2024/04/01 14:25:48;;;;;;;4.50;0.80;;;;;;;;;;5091977;28;20230;-82
2024/04/01 14:28:15;;;;;;;3.92;0.82;;;;;;;;;;5092153;28;20257;-81
2024/04/01 14:30:43;;;;;;;7.45;1.27;;;;;;;;;;5091782;28;20190;-81
2024/04/01 14:33:10;;;;;;;6.90;1.25;;;;;;;;;;5092316;28;20238;-80
2024/04/01 14:35:38;;;;;;;5.05;0.85;;;;;;;;;;5091971;28;20191;-81
2024/04/01 14:38:06;;;;;;;4.82;1.00;;;;;;;;;;5092133;28;20240;-82
2024/04/01 14:40:32;;;;;;;6.28;1.17;;;;;;;;;;5091787;28;20293;-81
2024/04/01 14:43:02;;;;;;;5.50;1.30;;;;;;;;;;5092111;28;20222;-81
2024/04/01 14:45:28;;;;;;;8.63;1.52;;;;;;;;;;5091434;28;20202;-81
2024/04/01 14:47:56;;;;;;;7.53;1.05;;;;;;;;;;5091196;28;20412;-81
2024/04/01 14:50:23;;;;;;;5.63;1.27;;;;;;;;;;5091813;28;20218;-81
2024/04/01 14:52:51;;;;;;;8.02;1.25;;;;;;;;;;5091886;28;20198;-81
2024/04/01 14:55:18;;;;;;;7.55;1.27;;;;;;;;;;5091434;28;20666;-81